sensor_id;sensor_type;location;lat;lon;timestamp;temperature;humidity
20929;DHT22;21895;47.072;15.132;2024-03-23T00:55:40;7.70;99.90
20929;DHT22;21895;47.072;15.132;2024-03-23T00:58:10;7.50;99.90
20929;DHT22;21895;47.072;15.132;2024-03-23T01:00:36;7.40;99.90
20929;DHT22;21895;47.072;15.132;2024-03-23T01:03:03;7.30;99.90
20929;DHT22;21895;47.072;15.132;2024-03-23T01:05:30;7.30;99.90
20929;DHT22;21895;47.072;15.132;2024-03-23T01:07:56;7.30;99.90
20929;DHT22;21895;47.072;15.132;2024-03-23T01:10:23;7.20;99.90
20929;DHT22;21895;47.072;15.132;2024-03-23T01:12:50;7.20;99.90
20929;DHT22;21895;47.072;15.132;2024-03-23T01:15:16;7.20;99.90
20929;DHT22;21895;47.072;15.132;2024-03-23T01:17:43;7.10;99.90
20929;DHT22;21895;47.072;15.132;2024-03-23T01:20:09;7.10;99.90
20929;DHT22;21895;47.072;15.132;2024-03-23T01:22:36;7.20;99.90
20929;DHT22;21895;47.072;15.132;2024-03-23T01:25:03;7.20;99.90
20929;DHT22;21895;47.072;15.132;2024-03-23T01:27:30;7.00;99.90
20929;DHT22;21895;47.072;15.132;2024-03-23T01:29:56;7.00;99.90
20929;DHT22;21895;47.072;15.132;2024-03-23T01:32:23;7.00;99.90
20929;DHT22;21895;47.072;15.132;2024-03-23T01:34:49;7.00;99.90
20929;DHT22;21895;47.072;15.132;2024-03-23T01:37:16;7.00;99.90
20929;DHT22;21895;47.072;15.132;2024-03-23T01:39:42;7.00;99.90
20929;DHT22;21895;47.072;15.132;2024-03-23T01:42:09;7.10;99.90
20929;DHT22;21895;47.072;15.132;2024-03-23T01:44:35;7.10;99.90
20929;DHT22;21895;47.072;15.132;2024-03-23T01:47:02;7.00;99.90
20929;DHT22;21895;47.072;15.132;2024-03-23T01:49:29;7.10;99.90
20929;DHT22;21895;47.072;15.132;2024-03-23T01:51:56;7.20;99.90
20929;DHT22;21895;47.072;15.132;2024-03-23T01:54:23;7.00;99.90
20929;DHT22;21895;47.072;15.132;2024-03-23T01:56:50;7.00;99.90
20929;DHT22;21895;47.072;15.132;2024-03-23T01:59:17;7.00;99.90
20929;DHT22;21895;47.072;15.132;2024-03-23T02:01:43;7.00;99.90
20929;DHT22;21895;47.072;15.132;2024-03-23T02:04:13;7.00;99.90
20929;DHT22;21895;47.072;15.132;2024-03-23T02:06:39;7.00;99.90
20929;DHT22;21895;47.072;15.132;2024-03-23T02:09:06;7.00;99.90
20929;DHT22;21895;47.072;15.132;2024-03-23T02:11:33;6.90;99.90
20929;DHT22;21895;47.072;15.132;2024-03-23T02:13:59;6.90;99.90
20929;DHT22;21895;47.072;15.132;2024-03-23T02:16:26;7.00;99.90
20929;DHT22;21895;47.072;15.132;2024-03-23T02:18:52;7.00;99.90
20929;DHT22;21895;47.072;15.132;2024-03-23T02:21:19;7.00;99.90
20929;DHT22;21895;47.072;15.132;2024-03-23T02:23:45;7.00;99.90
20929;DHT22;21895;47.072;15.132;2024-03-23T02:26:12;6.80;99.90
20929;DHT22;21895;47.072;15.132;2024-03-23T02:28:40;6.70;99.90
20929;DHT22;21895;47.072;15.132;2024-03-23T02:31:06;6.70;99.90
20929;DHT22;21895;47.072;15.132;2024-03-23T02:33:33;6.70;99.90
20929;DHT22;21895;47.072;15.132;2024-03-23T02:36:00;6.70;99.90
20929;DHT22;21895;47.072;15.132;2024-03-23T02:38:27;6.70;99.90
20929;DHT22;21895;47.072;15.132;2024-03-23T02:40:53;6.70;99.90
20929;DHT22;21895;47.072;15.132;2024-03-23T02:43:20;6.70;99.90
20929;DHT22;21895;47.072;15.132;2024-03-23T02:45:47;6.50;99.90
20929;DHT22;21895;47.072;15.132;2024-03-23T02:48:13;6.40;99.90
20929;DHT22;21895;47.072;15.132;2024-03-23T02:50:40;6.20;99.90
20929;DHT22;21895;47.072;15.132;2024-03-23T02:53:06;6.10;99.90
20929;DHT22;21895;47.072;15.132;2024-03-23T02:55:33;6.00;99.90
20929;DHT22;21895;47.072;15.132;2024-03-23T02:58:00;5.90;99.90
20929;DHT22;21895;47.072;15.132;2024-03-23T03:00:28;5.90;99.90
20929;DHT22;21895;47.072;15.132;2024-03-23T03:02:55;5.90;99.90
20929;DHT22;21895;47.072;15.132;2024-03-23T03:05:21;5.90;99.90
20929;DHT22;21895;47.072;15.132;2024-03-23T03:07:48;5.80;99.90
20929;DHT22;21895;47.072;15.132;2024-03-23T03:10:18;5.80;99.90
20929;DHT22;21895;47.072;15.132;2024-03-23T03:12:44;5.80;99.90
20929;DHT22;21895;47.072;15.132;2024-03-23T03:15:11;5.80;99.90
20929;DHT22;21895;47.072;15.132;2024-03-23T03:17:38;5.80;99.90
20929;DHT22;21895;47.072;15.132;2024-03-23T03:20:05;5.80;99.90
20929;DHT22;21895;47.072;15.132;2024-03-23T03:22:32;5.60;99.90
20929;DHT22;21895;47.072;15.132;2024-03-23T03:24:59;5.50;99.90
20929;DHT22;21895;47.072;15.132;2024-03-23T03:27:26;5.50;99.90
20929;DHT22;21895;47.072;15.132;2024-03-23T03:29:53;5.60;99.90
20929;DHT22;21895;47.072;15.132;2024-03-23T03:32:19;5.70;99.90
20929;DHT22;21895;47.072;15.132;2024-03-23T03:34:46;5.60;99.90
20929;DHT22;21895;47.072;15.132;2024-03-23T03:37:12;5.70;99.90
20929;DHT22;21895;47.072;15.132;2024-03-23T03:39:39;5.80;99.90
20929;DHT22;21895;47.072;15.132;2024-03-23T03:42:06;5.90;99.90
20929;DHT22;21895;47.072;15.132;2024-03-23T03:44:33;5.80;99.90
20929;DHT22;21895;47.072;15.132;2024-03-23T03:47:02;5.90;99.90
20929;DHT22;21895;47.072;15.132;2024-03-23T03:49:29;6.00;99.90
20929;DHT22;21895;47.072;15.132;2024-03-23T03:51:56;6.00;99.90
20929;DHT22;21895;47.072;15.132;2024-03-23T03:54:22;6.10;99.90
20929;DHT22;21895;47.072;15.132;2024-03-23T03:56:49;6.10;99.90
20929;DHT22;21895;47.072;15.132;2024-03-23T03:59:18;6.10;99.90
20929;DHT22;21895;47.072;15.132;2024-03-23T04:01:46;6.10;99.90
20929;DHT22;21895;47.072;15.132;2024-03-23T04:04:12;5.90;99.90
20929;DHT22;21895;47.072;15.132;2024-03-23T04:06:39;5.90;99.90
20929;DHT22;21895;47.072;15.132;2024-03-23T04:09:06;6.00;99.90
20929;DHT22;21895;47.072;15.132;2024-03-23T04:11:33;6.00;99.90
20929;DHT22;21895;47.072;15.132;2024-03-23T04:13:59;5.90;99.90
20929;DHT22;21895;47.072;15.132;2024-03-23T04:16:29;6.00;99.90
20929;DHT22;21895;47.072;15.132;2024-03-23T04:19:00;6.00;99.90
20929;DHT22;21895;47.072;15.132;2024-03-23T04:21:27;6.00;99.90
20929;DHT22;21895;47.072;15.132;2024-03-23T04:23:53;6.10;99.90
20929;DHT22;21895;47.072;15.132;2024-03-23T04:26:20;6.20;99.90
20929;DHT22;21895;47.072;15.132;2024-03-23T04:28:46;6.10;99.90
20929;DHT22;21895;47.072;15.132;2024-03-23T04:31:13;6.20;99.90
20929;DHT22;21895;47.072;15.132;2024-03-23T04:33:39;6.40;99.90
20929;DHT22;21895;47.072;15.132;2024-03-23T04:36:06;6.60;99.90
20929;DHT22;21895;47.072;15.132;2024-03-23T04:38:33;6.70;99.90
20929;DHT22;21895;47.072;15.132;2024-03-23T04:41:00;6.60;99.90
20929;DHT22;21895;47.072;15.132;2024-03-23T04:43:28;6.60;99.90
20929;DHT22;21895;47.072;15.132;2024-03-23T04:45:54;6.70;99.90
20929;DHT22;21895;47.072;15.132;2024-03-23T04:48:22;6.80;99.90
20929;DHT22;21895;47.072;15.132;2024-03-23T04:50:49;6.90;99.90
20929;DHT22;21895;47.072;15.132;2024-03-23T04:53:20;6.90;99.90
20929;DHT22;21895;47.072;15.132;2024-03-23T04:55:46;6.90;99.90
20929;DHT22;21895;47.072;15.132;2024-03-23T04:58:13;7.00;99.90
20929;DHT22;21895;47.072;15.132;2024-03-23T05:00:40;7.00;99.90
20929;DHT22;21895;47.072;15.132;2024-03-23T05:03:06;6.90;99.90
20929;DHT22;21895;47.072;15.132;2024-03-23T05:05:33;6.90;99.90
20929;DHT22;21895;47.072;15.132;2024-03-23T05:07:59;6.90;99.90
20929;DHT22;21895;47.072;15.132;2024-03-23T05:10:26;6.90;99.90
20929;DHT22;21895;47.072;15.132;2024-03-23T05:12:52;7.00;99.90
20929;DHT22;21895;47.072;15.132;2024-03-23T05:15:19;7.10;99.90
20929;DHT22;21895;47.072;15.132;2024-03-23T05:17:45;7.20;99.90
20929;DHT22;21895;47.072;15.132;2024-03-23T05:20:12;7.20;99.90
20929;DHT22;21895;47.072;15.132;2024-03-23T05:22:39;7.00;99.90
20929;DHT22;21895;47.072;15.132;2024-03-23T05:25:06;7.00;99.90
20929;DHT22;21895;47.072;15.132;2024-03-23T05:27:33;7.00;99.90
20929;DHT22;21895;47.072;15.132;2024-03-23T05:30:00;7.20;99.90
20929;DHT22;21895;47.072;15.132;2024-03-23T05:32:26;7.20;99.90
20929;DHT22;21895;47.072;15.132;2024-03-23T05:34:54;7.30;99.90
20929;DHT22;21895;47.072;15.132;2024-03-23T05:37:23;7.30;99.90
20929;DHT22;21895;47.072;15.132;2024-03-23T05:39:49;7.40;99.90
20929;DHT22;21895;47.072;15.132;2024-03-23T05:42:17;7.40;99.90
20929;DHT22;21895;47.072;15.132;2024-03-23T05:44:47;7.50;99.90
20929;DHT22;21895;47.072;15.132;2024-03-23T05:47:13;7.70;99.90
20929;DHT22;21895;47.072;15.132;2024-03-23T05:49:43;7.70;99.90
20929;DHT22;21895;47.072;15.132;2024-03-23T05:52:10;7.80;99.90
20929;DHT22;21895;47.072;15.132;2024-03-23T05:54:36;7.90;99.90
20929;DHT22;21895;47.072;15.132;2024-03-23T05:57:03;8.00;99.90
20929;DHT22;21895;47.072;15.132;2024-03-23T05:59:30;8.00;99.90
20929;DHT22;21895;47.072;15.132;2024-03-23T06:01:57;8.10;99.90
20929;DHT22;21895;47.072;15.132;2024-03-23T06:04:23;8.20;99.90
20929;DHT22;21895;47.072;15.132;2024-03-23T06:06:51;8.20;99.90
20929;DHT22;21895;47.072;15.132;2024-03-23T06:09:18;8.20;99.90
20929;DHT22;21895;47.072;15.132;2024-03-23T06:11:46;8.30;99.90
20929;DHT22;21895;47.072;15.132;2024-03-23T06:14:12;8.30;99.90
20929;DHT22;21895;47.072;15.132;2024-03-23T06:16:39;8.40;99.90
20929;DHT22;21895;47.072;15.132;2024-03-23T06:19:05;8.50;99.90
20929;DHT22;21895;47.072;15.132;2024-03-23T06:21:33;8.50;99.90
20929;DHT22;21895;47.072;15.132;2024-03-23T06:23:59;8.50;99.90
20929;DHT22;21895;47.072;15.132;2024-03-23T06:26:26;8.50;99.90
20929;DHT22;21895;47.072;15.132;2024-03-23T06:28:52;8.50;99.90
20929;DHT22;21895;47.072;15.132;2024-03-23T06:31:19;8.60;99.90
20929;DHT22;21895;47.072;15.132;2024-03-23T06:33:46;8.70;99.90
20929;DHT22;21895;47.072;15.132;2024-03-23T06:36:12;8.70;99.90
20929;DHT22;21895;47.072;15.132;2024-03-23T06:38:41;8.80;99.90
20929;DHT22;21895;47.072;15.132;2024-03-23T06:41:08;8.90;99.90
20929;DHT22;21895;47.072;15.132;2024-03-23T06:43:35;9.00;99.90
20929;DHT22;21895;47.072;15.132;2024-03-23T06:46:02;9.10;99.90
20929;DHT22;21895;47.072;15.132;2024-03-23T06:48:30;9.10;99.90
20929;DHT22;21895;47.072;15.132;2024-03-23T06:50:57;9.10;99.90
20929;DHT22;21895;47.072;15.132;2024-03-23T06:53:24;9.20;99.90
20929;DHT22;21895;47.072;15.132;2024-03-23T06:55:52;9.20;99.90
20929;DHT22;21895;47.072;15.132;2024-03-23T06:58:24;9.20;99.90
20929;DHT22;21895;47.072;15.132;2024-03-23T07:00:51;9.30;99.90
20929;DHT22;21895;47.072;15.132;2024-03-23T07:03:17;9.30;99.90
20929;DHT22;21895;47.072;15.132;2024-03-23T07:05:44;9.40;99.90
20929;DHT22;21895;47.072;15.132;2024-03-23T07:08:12;9.40;99.90
20929;DHT22;21895;47.072;15.132;2024-03-23T07:10:41;9.60;99.90
20929;DHT22;21895;47.072;15.132;2024-03-23T07:13:08;9.60;99.90
20929;DHT22;21895;47.072;15.132;2024-03-23T07:15:37;9.70;99.90
20929;DHT22;21895;47.072;15.132;2024-03-23T07:18:04;9.80;99.90
20929;DHT22;21895;47.072;15.132;2024-03-23T07:20:31;9.90;99.90
20929;DHT22;21895;47.072;15.132;2024-03-23T07:22:58;10.00;99.90
20929;DHT22;21895;47.072;15.132;2024-03-23T07:25:25;10.10;99.90
20929;DHT22;21895;47.072;15.132;2024-03-23T07:27:56;10.30;99.90
20929;DHT22;21895;47.072;15.132;2024-03-23T07:30:22;10.40;99.90
20929;DHT22;21895;47.072;15.132;2024-03-23T07:32:49;10.50;99.90
20929;DHT22;21895;47.072;15.132;2024-03-23T07:35:15;10.80;99.90
20929;DHT22;21895;47.072;15.132;2024-03-23T07:37:42;10.90;99.90
20929;DHT22;21895;47.072;15.132;2024-03-23T07:40:10;10.90;99.90
20929;DHT22;21895;47.072;15.132;2024-03-23T07:42:42;11.10;99.90
20929;DHT22;21895;47.072;15.132;2024-03-23T07:45:09;11.10;99.90
20929;DHT22;21895;47.072;15.132;2024-03-23T07:47:36;11.10;99.90
20929;DHT22;21895;47.072;15.132;2024-03-23T07:50:03;11.30;99.90
20929;DHT22;21895;47.072;15.132;2024-03-23T07:52:30;11.40;99.90
20929;DHT22;21895;47.072;15.132;2024-03-23T07:54:56;11.60;99.90
20929;DHT22;21895;47.072;15.132;2024-03-23T07:57:23;11.70;99.90
20929;DHT22;21895;47.072;15.132;2024-03-23T07:59:50;11.70;99.90
20929;DHT22;21895;47.072;15.132;2024-03-23T08:02:17;11.80;99.90
20929;DHT22;21895;47.072;15.132;2024-03-23T08:04:43;11.90;99.90
20929;DHT22;21895;47.072;15.132;2024-03-23T08:07:10;12.10;99.90
20929;DHT22;21895;47.072;15.132;2024-03-23T08:09:36;12.20;99.90
20929;DHT22;21895;47.072;15.132;2024-03-23T08:12:03;12.50;99.90
20929;DHT22;21895;47.072;15.132;2024-03-23T08:14:31;13.00;99.90
20929;DHT22;21895;47.072;15.132;2024-03-23T08:16:57;13.50;99.90
20929;DHT22;21895;47.072;15.132;2024-03-23T08:19:24;14.00;99.90
20929;DHT22;21895;47.072;15.132;2024-03-23T08:21:50;14.40;99.90
20929;DHT22;21895;47.072;15.132;2024-03-23T08:24:17;14.80;99.70
20929;DHT22;21895;47.072;15.132;2024-03-23T08:26:45;15.00;99.60
20929;DHT22;21895;47.072;15.132;2024-03-23T08:29:12;15.40;98.50
20929;DHT22;21895;47.072;15.132;2024-03-23T08:31:38;15.70;98.10
20929;DHT22;21895;47.072;15.132;2024-03-23T08:34:05;16.10;96.80
20929;DHT22;21895;47.072;15.132;2024-03-23T08:36:31;16.30;96.80
20929;DHT22;21895;47.072;15.132;2024-03-23T08:38:58;16.40;96.20
20929;DHT22;21895;47.072;15.132;2024-03-23T08:41:25;16.50;96.50
20929;DHT22;21895;47.072;15.132;2024-03-23T08:43:52;16.60;95.40
20929;DHT22;21895;47.072;15.132;2024-03-23T08:46:18;16.80;95.30
20929;DHT22;21895;47.072;15.132;2024-03-23T08:48:46;16.80;95.50
20929;DHT22;21895;47.072;15.132;2024-03-23T08:51:16;16.90;96.10
20929;DHT22;21895;47.072;15.132;2024-03-23T08:53:43;17.00;96.50
20929;DHT22;21895;47.072;15.132;2024-03-23T08:56:11;17.00;96.50
20929;DHT22;21895;47.072;15.132;2024-03-23T08:58:38;17.00;96.10
20929;DHT22;21895;47.072;15.132;2024-03-23T09:01:12;17.00;96.60
20929;DHT22;21895;47.072;15.132;2024-03-23T09:03:39;16.90;96.60
20929;DHT22;21895;47.072;15.132;2024-03-23T09:06:10;16.80;96.60
20929;DHT22;21895;47.072;15.132;2024-03-23T09:08:38;16.70;96.40
20929;DHT22;21895;47.072;15.132;2024-03-23T09:11:12;16.70;96.70
20929;DHT22;21895;47.072;15.132;2024-03-23T09:13:39;16.50;96.50
20929;DHT22;21895;47.072;15.132;2024-03-23T09:16:07;16.40;96.50
20929;DHT22;21895;47.072;15.132;2024-03-23T09:18:36;16.30;96.60
20929;DHT22;21895;47.072;15.132;2024-03-23T09:21:03;16.30;96.60
20929;DHT22;21895;47.072;15.132;2024-03-23T09:23:36;16.40;96.20
20929;DHT22;21895;47.072;15.132;2024-03-23T09:26:03;16.50;96.40
20929;DHT22;21895;47.072;15.132;2024-03-23T09:28:30;16.60;96.40
20929;DHT22;21895;47.072;15.132;2024-03-23T09:31:07;17.20;96.20
20929;DHT22;21895;47.072;15.132;2024-03-23T09:33:35;17.70;95.80
20929;DHT22;21895;47.072;15.132;2024-03-23T09:36:06;18.00;94.10
20929;DHT22;21895;47.072;15.132;2024-03-23T09:38:33;18.30;93.80
20929;DHT22;21895;47.072;15.132;2024-03-23T09:41:00;18.50;93.50
20929;DHT22;21895;47.072;15.132;2024-03-23T09:43:32;18.80;92.80
20929;DHT22;21895;47.072;15.132;2024-03-23T09:46:00;19.10;90.50
20929;DHT22;21895;47.072;15.132;2024-03-23T09:48:28;19.40;91.40
20929;DHT22;21895;47.072;15.132;2024-03-23T09:50:55;19.70;91.40
20929;DHT22;21895;47.072;15.132;2024-03-23T09:53:22;20.10;90.60
20929;DHT22;21895;47.072;15.132;2024-03-23T09:55:49;20.30;89.80
20929;DHT22;21895;47.072;15.132;2024-03-23T09:58:16;20.20;89.50
20929;DHT22;21895;47.072;15.132;2024-03-23T10:00:44;20.40;89.70
20929;DHT22;21895;47.072;15.132;2024-03-23T10:03:11;20.50;87.30
20929;DHT22;21895;47.072;15.132;2024-03-23T10:05:38;20.50;88.00
20929;DHT22;21895;47.072;15.132;2024-03-23T10:08:28;20.50;86.60
20929;DHT22;21895;47.072;15.132;2024-03-23T10:10:55;20.50;85.30
20929;DHT22;21895;47.072;15.132;2024-03-23T10:13:25;20.40;83.00
20929;DHT22;21895;47.072;15.132;2024-03-23T10:15:58;20.20;84.50
20929;DHT22;21895;47.072;15.132;2024-03-23T10:18:26;19.90;85.50
20929;DHT22;21895;47.072;15.132;2024-03-23T10:21:10;19.80;85.10
20929;DHT22;21895;47.072;15.132;2024-03-23T10:23:40;19.90;84.30
20929;DHT22;21895;47.072;15.132;2024-03-23T10:26:41;20.00;86.40
20929;DHT22;21895;47.072;15.132;2024-03-23T10:29:08;20.00;83.80
20929;DHT22;21895;47.072;15.132;2024-03-23T10:31:36;20.00;82.90
20929;DHT22;21895;47.072;15.132;2024-03-23T10:34:03;19.90;84.40
20929;DHT22;21895;47.072;15.132;2024-03-23T10:36:30;19.90;84.30
20929;DHT22;21895;47.072;15.132;2024-03-23T10:38:58;19.90;84.50
20929;DHT22;21895;47.072;15.132;2024-03-23T10:41:28;19.90;82.20
20929;DHT22;21895;47.072;15.132;2024-03-23T10:43:58;20.00;85.00
20929;DHT22;21895;47.072;15.132;2024-03-23T10:46:27;20.10;85.40
20929;DHT22;21895;47.072;15.132;2024-03-23T10:48:54;20.20;82.70
20929;DHT22;21895;47.072;15.132;2024-03-23T10:51:21;20.20;81.70
20929;DHT22;21895;47.072;15.132;2024-03-23T10:53:47;20.20;80.90
20929;DHT22;21895;47.072;15.132;2024-03-23T10:56:15;20.30;78.90
20929;DHT22;21895;47.072;15.132;2024-03-23T10:58:46;20.20;80.00
20929;DHT22;21895;47.072;15.132;2024-03-23T11:01:15;20.20;82.20
20929;DHT22;21895;47.072;15.132;2024-03-23T11:03:46;20.20;79.80
20929;DHT22;21895;47.072;15.132;2024-03-23T11:06:37;19.90;82.70
20929;DHT22;21895;47.072;15.132;2024-03-23T11:09:48;19.70;81.10
20929;DHT22;21895;47.072;15.132;2024-03-23T11:12:27;19.50;79.90
20929;DHT22;21895;47.072;15.132;2024-03-23T11:15:10;19.50;82.80
20929;DHT22;21895;47.072;15.132;2024-03-23T11:17:38;19.40;82.30
20929;DHT22;21895;47.072;15.132;2024-03-23T11:20:05;19.50;82.50
20929;DHT22;21895;47.072;15.132;2024-03-23T11:22:45;19.60;82.20
20929;DHT22;21895;47.072;15.132;2024-03-23T11:25:22;19.60;82.20
20929;DHT22;21895;47.072;15.132;2024-03-23T11:27:54;19.50;82.00
20929;DHT22;21895;47.072;15.132;2024-03-23T11:30:27;19.50;82.30
20929;DHT22;21895;47.072;15.132;2024-03-23T11:32:56;19.50;80.10
20929;DHT22;21895;47.072;15.132;2024-03-23T11:35:37;19.50;81.60
20929;DHT22;21895;47.072;15.132;2024-03-23T11:38:13;19.60;79.30
20929;DHT22;21895;47.072;15.132;2024-03-23T11:40:42;19.60;80.20
20929;DHT22;21895;47.072;15.132;2024-03-23T11:43:19;19.60;78.80
20929;DHT22;21895;47.072;15.132;2024-03-23T11:45:52;19.60;79.90
20929;DHT22;21895;47.072;15.132;2024-03-23T11:48:20;19.60;80.10
20929;DHT22;21895;47.072;15.132;2024-03-23T11:50:53;19.70;79.50
20929;DHT22;21895;47.072;15.132;2024-03-23T11:53:22;19.80;77.50
20929;DHT22;21895;47.072;15.132;2024-03-23T11:55:58;19.80;77.60
20929;DHT22;21895;47.072;15.132;2024-03-23T11:58:27;19.90;78.60
20929;DHT22;21895;47.072;15.132;2024-03-23T12:00:58;20.00;77.60
20929;DHT22;21895;47.072;15.132;2024-03-23T12:03:28;20.10;77.50
20929;DHT22;21895;47.072;15.132;2024-03-23T12:05:58;20.20;76.80
20929;DHT22;21895;47.072;15.132;2024-03-23T12:08:34;20.20;78.30
20929;DHT22;21895;47.072;15.132;2024-03-23T12:11:12;20.20;77.20
20929;DHT22;21895;47.072;15.132;2024-03-23T12:13:44;20.00;76.80
20929;DHT22;21895;47.072;15.132;2024-03-23T12:16:17;20.00;78.10
20929;DHT22;21895;47.072;15.132;2024-03-23T12:18:50;20.00;77.90
20929;DHT22;21895;47.072;15.132;2024-03-23T12:21:17;20.00;77.20
20929;DHT22;21895;47.072;15.132;2024-03-23T12:23:44;19.80;78.90
20929;DHT22;21895;47.072;15.132;2024-03-23T12:26:13;19.60;79.60
20929;DHT22;21895;47.072;15.132;2024-03-23T12:28:39;19.50;79.10
20929;DHT22;21895;47.072;15.132;2024-03-23T12:31:06;19.60;80.50
20929;DHT22;21895;47.072;15.132;2024-03-23T12:33:33;19.80;80.30
20929;DHT22;21895;47.072;15.132;2024-03-23T12:35:59;19.80;80.70
20929;DHT22;21895;47.072;15.132;2024-03-23T12:38:26;19.90;80.40
20929;DHT22;21895;47.072;15.132;2024-03-23T12:40:52;19.80;79.90
20929;DHT22;21895;47.072;15.132;2024-03-23T12:43:19;19.80;79.70
20929;DHT22;21895;47.072;15.132;2024-03-23T12:45:49;19.90;81.00
20929;DHT22;21895;47.072;15.132;2024-03-23T12:48:16;19.90;79.90
20929;DHT22;21895;47.072;15.132;2024-03-23T12:50:43;20.00;81.30
20929;DHT22;21895;47.072;15.132;2024-03-23T12:53:10;20.20;79.80
20929;DHT22;21895;47.072;15.132;2024-03-23T12:55:36;20.30;78.70
20929;DHT22;21895;47.072;15.132;2024-03-23T12:58:04;20.50;79.50
20929;DHT22;21895;47.072;15.132;2024-03-23T13:00:30;20.50;77.90
20929;DHT22;21895;47.072;15.132;2024-03-23T13:02:57;20.60;78.70
20929;DHT22;21895;47.072;15.132;2024-03-23T13:05:23;20.70;77.10
20929;DHT22;21895;47.072;15.132;2024-03-23T13:07:50;20.60;76.40
20929;DHT22;21895;47.072;15.132;2024-03-23T13:10:17;20.50;78.30
20929;DHT22;21895;47.072;15.132;2024-03-23T13:12:43;20.70;78.80
20929;DHT22;21895;47.072;15.132;2024-03-23T13:15:10;21.00;78.00
20929;DHT22;21895;47.072;15.132;2024-03-23T13:17:36;20.80;76.30
20929;DHT22;21895;47.072;15.132;2024-03-23T13:20:03;20.70;77.10
20929;DHT22;21895;47.072;15.132;2024-03-23T13:22:30;20.70;77.20
20929;DHT22;21895;47.072;15.132;2024-03-23T13:24:57;20.80;76.50
20929;DHT22;21895;47.072;15.132;2024-03-23T13:27:25;20.70;76.60
20929;DHT22;21895;47.072;15.132;2024-03-23T13:29:52;20.50;76.20
20929;DHT22;21895;47.072;15.132;2024-03-23T13:32:18;20.00;76.80
20929;DHT22;21895;47.072;15.132;2024-03-23T13:34:45;19.90;77.80
20929;DHT22;21895;47.072;15.132;2024-03-23T13:37:11;19.90;79.00
20929;DHT22;21895;47.072;15.132;2024-03-23T13:39:39;20.30;78.40
20929;DHT22;21895;47.072;15.132;2024-03-23T13:42:06;20.40;77.20
20929;DHT22;21895;47.072;15.132;2024-03-23T13:44:34;20.20;76.90
20929;DHT22;21895;47.072;15.132;2024-03-23T13:47:02;20.20;78.50
20929;DHT22;21895;47.072;15.132;2024-03-23T13:49:30;20.20;78.00
20929;DHT22;21895;47.072;15.132;2024-03-23T13:51:58;20.30;76.50
20929;DHT22;21895;47.072;15.132;2024-03-23T13:54:28;20.20;77.40
20929;DHT22;21895;47.072;15.132;2024-03-23T13:56:56;20.30;77.40
20929;DHT22;21895;47.072;15.132;2024-03-23T13:59:23;20.20;76.70
20929;DHT22;21895;47.072;15.132;2024-03-23T14:01:50;20.20;75.90
20929;DHT22;21895;47.072;15.132;2024-03-23T14:04:21;20.30;77.90
20929;DHT22;21895;47.072;15.132;2024-03-23T14:06:48;20.20;77.20
20929;DHT22;21895;47.072;15.132;2024-03-23T14:09:15;20.20;76.60
20929;DHT22;21895;47.072;15.132;2024-03-23T14:11:47;20.20;76.60
20929;DHT22;21895;47.072;15.132;2024-03-23T14:14:14;20.10;75.90
20929;DHT22;21895;47.072;15.132;2024-03-23T14:16:43;20.00;76.20
20929;DHT22;21895;47.072;15.132;2024-03-23T14:19:10;20.00;75.40
20929;DHT22;21895;47.072;15.132;2024-03-23T14:21:36;20.10;74.70
20929;DHT22;21895;47.072;15.132;2024-03-23T14:24:04;20.10;74.70
20929;DHT22;21895;47.072;15.132;2024-03-23T14:26:31;20.20;76.60
20929;DHT22;21895;47.072;15.132;2024-03-23T14:28:58;20.20;75.50
20929;DHT22;21895;47.072;15.132;2024-03-23T14:31:24;20.40;75.00
20929;DHT22;21895;47.072;15.132;2024-03-23T14:33:51;20.40;74.90
20929;DHT22;21895;47.072;15.132;2024-03-23T14:36:17;20.20;73.10
20929;DHT22;21895;47.072;15.132;2024-03-23T14:38:48;20.10;74.90
20929;DHT22;21895;47.072;15.132;2024-03-23T14:41:15;20.10;74.50
20929;DHT22;21895;47.072;15.132;2024-03-23T14:43:45;20.10;75.00
20929;DHT22;21895;47.072;15.132;2024-03-23T14:46:15;20.10;74.80
20929;DHT22;21895;47.072;15.132;2024-03-23T14:48:43;19.90;73.90
20929;DHT22;21895;47.072;15.132;2024-03-23T14:51:12;19.80;76.10
20929;DHT22;21895;47.072;15.132;2024-03-23T14:53:40;19.60;75.00
20929;DHT22;21895;47.072;15.132;2024-03-23T14:56:08;19.60;73.90
20929;DHT22;21895;47.072;15.132;2024-03-23T14:58:37;19.50;75.30
20929;DHT22;21895;47.072;15.132;2024-03-23T15:01:08;19.60;76.60
20929;DHT22;21895;47.072;15.132;2024-03-23T15:03:38;19.50;75.30
20929;DHT22;21895;47.072;15.132;2024-03-23T15:06:06;19.30;75.40
20929;DHT22;21895;47.072;15.132;2024-03-23T15:08:35;19.20;75.90
20929;DHT22;21895;47.072;15.132;2024-03-23T15:11:03;19.00;75.70
20929;DHT22;21895;47.072;15.132;2024-03-23T15:13:35;18.90;74.10
20929;DHT22;21895;47.072;15.132;2024-03-23T15:16:03;18.80;74.70
20929;DHT22;21895;47.072;15.132;2024-03-23T15:18:30;18.60;75.50
20929;DHT22;21895;47.072;15.132;2024-03-23T15:21:02;18.60;75.30
20929;DHT22;21895;47.072;15.132;2024-03-23T15:23:33;18.30;76.70
20929;DHT22;21895;47.072;15.132;2024-03-23T15:26:01;17.30;79.20
20929;DHT22;21895;47.072;15.132;2024-03-23T15:28:29;16.80;80.60
20929;DHT22;21895;47.072;15.132;2024-03-23T15:31:08;16.20;81.40
20929;DHT22;21895;47.072;15.132;2024-03-23T15:33:38;15.70;82.50
20929;DHT22;21895;47.072;15.132;2024-03-23T15:36:06;15.40;83.20
20929;DHT22;21895;47.072;15.132;2024-03-23T15:38:33;15.20;83.80
20929;DHT22;21895;47.072;15.132;2024-03-23T15:40:59;15.00;83.80
20929;DHT22;21895;47.072;15.132;2024-03-23T15:43:26;14.80;84.70
20929;DHT22;21895;47.072;15.132;2024-03-23T15:45:57;14.80;85.20
20929;DHT22;21895;47.072;15.132;2024-03-23T15:48:26;14.60;85.70
20929;DHT22;21895;47.072;15.132;2024-03-23T15:51:00;14.30;86.70
20929;DHT22;21895;47.072;15.132;2024-03-23T15:53:28;14.00;88.00
20929;DHT22;21895;47.072;15.132;2024-03-23T15:56:01;13.80;89.50
20929;DHT22;21895;47.072;15.132;2024-03-23T15:58:30;13.60;89.40
20929;DHT22;21895;47.072;15.132;2024-03-23T16:01:05;13.40;90.80
20929;DHT22;21895;47.072;15.132;2024-03-23T16:03:35;13.10;91.60
20929;DHT22;21895;47.072;15.132;2024-03-23T16:06:06;12.80;91.80
20929;DHT22;21895;47.072;15.132;2024-03-23T16:08:34;12.60;92.40
20929;DHT22;21895;47.072;15.132;2024-03-23T16:11:02;12.40;93.30
20929;DHT22;21895;47.072;15.132;2024-03-23T16:13:32;12.30;92.90
20929;DHT22;21895;47.072;15.132;2024-03-23T16:16:03;12.00;91.40
20929;DHT22;21895;47.072;15.132;2024-03-23T16:18:34;11.70;91.90
20929;DHT22;21895;47.072;15.132;2024-03-23T16:21:03;11.20;92.50
20929;DHT22;21895;47.072;15.132;2024-03-23T16:23:34;10.80;93.80